Time;durP1;ratioP1;P1;durP2;ratioP2;P2;SDS_P1;SDS_P2;PMS_P1;PMS_P2;Temp;Humidity;BMP_temperature;BMP_pressure;BME280_temperature;BME280_humidity;BME280_pressure;Samples;Min_cycle;Max_cycle;Signal;HPM_P1;HPM_P2
2022/10/29 00:01:08;;;;;;;;;14.00;9.50;;;;;19.74;71.77;101601.69;4836683;29;45689;-80
2022/10/29 00:03:35;;;;;;;;;14.50;12.50;;;;;19.77;71.89;101613.25;4845014;29;45349;-80
2022/10/29 00:06:04;;;;;;;;;12.75;10.50;;;;;19.77;71.73;101620.53;4839355;29;45503;-80
2022/10/29 00:08:32;;;;;;;;;10.75;10.50;;;;;19.78;71.92;101608.72;4841026;29;46649;-80
2022/10/29 00:11:09;;;;;;;;;14.00;12.25;;;;;19.74;71.70;101607.13;4843184;29;45549;-80
2022/10/29 00:13:36;;;;;;;;;15.00;10.50;;;;;19.73;71.87;101594.50;4843248;29;45724;-80
2022/10/29 00:16:09;;;;;;;;;12.00;11.25;;;;;19.75;72.06;101590.81;4836280;29;45554;-80
2022/10/29 00:18:35;;;;;;;;;13.50;12.00;;;;;19.72;71.86;101571.13;4841000;29;45715;-80
2022/10/29 00:21:06;;;;;;;;;12.75;12.00;;;;;19.74;71.66;101577.31;4857641;29;45399;-80
2022/10/29 00:23:32;;;;;;;;;11.25;11.00;;;;;19.68;71.84;101562.31;4843827;29;45356;-80
2022/10/29 00:25:58;;;;;;;;;13.75;11.75;;;;;19.68;71.73;101566.81;4837077;29;46016;-80
2022/10/29 00:28:24;;;;;;;;;8.75;7.50;;;;;19.71;71.91;101563.94;4837091;29;48909;-80
2022/10/29 00:30:50;;;;;;;;;15.75;13.00;;;;;19.62;71.85;101549.09;4842448;29;45350;-80
2022/10/29 00:33:17;;;;;;;;;15.00;12.25;;;;;19.69;71.91;101569.44;4833007;29;45315;-80
2022/10/29 00:35:53;;;;;;;;;14.50;10.50;;;;;19.73;71.48;101567.44;4846101;29;45304;-80
2022/10/29 00:38:18;;;;;;;;;10.50;10.25;;;;;19.73;71.57;101579.16;4851195;29;47786;-80
2022/10/29 00:40:43;;;;;;;;;11.50;10.75;;;;;19.63;71.54;101540.03;4843481;29;45363;-80
2022/10/29 00:43:17;;;;;;;;;13.50;13.50;;;;;19.73;71.41;101556.59;4840892;29;47572;-80
2022/10/29 00:45:59;;;;;;;;;13.50;12.25;;;;;19.71;71.75;101555.81;4843699;29;45412;-77
2022/10/29 00:48:27;;;;;;;;;13.50;13.00;;;;;19.72;71.21;101561.16;4841742;29;47021;-80
2022/10/29 00:50:54;;;;;;;;;14.25;14.00;;;;;19.63;71.31;101540.91;4842050;29;45603;-80
2022/10/29 00:53:23;;;;;;;;;11.25;11.25;;;;;19.70;71.42;101546.81;4843263;29;45955;-80
2022/10/29 00:55:49;;;;;;;;;13.00;10.75;;;;;19.69;71.48;101534.25;4836334;29;45257;-80
2022/10/29 00:58:14;;;;;;;;;13.50;13.50;;;;;19.68;71.33;101537.94;4850205;29;45285;-77
2022/10/29 01:00:40;;;;;;;;;14.00;14.00;;;;;19.69;71.29;101542.38;4845914;29;45423;-77
2022/10/29 01:03:05;;;;;;;;;10.50;10.25;;;;;19.68;71.43;101527.09;4840074;29;45300;-77
2022/10/29 01:05:33;;;;;;;;;13.75;11.50;;;;;19.70;71.50;101518.88;4845038;29;45331;-77
2022/10/29 01:07:59;;;;;;;;;12.25;12.00;;;;;19.69;71.59;101518.00;4835943;29;45475;-80
2022/10/29 01:10:36;;;;;;;;;16.25;14.75;;;;;19.68;71.59;101512.66;4841992;29;45279;-80
2022/10/29 01:13:23;;;;;;;;;7.00;7.00;;;;;19.69;71.40;101501.72;4858351;29;45347;-80
2022/10/29 01:16:30;;;;;;;;;12.00;11.25;;;;;19.69;71.62;101509.84;4843892;29;45204;-80
2022/10/29 01:19:12;;;;;;;;;15.00;12.50;;;;;19.71;71.55;101501.66;4836098;29;45379;-80
2022/10/29 01:21:44;;;;;;;;;13.50;13.00;;;;;19.65;71.24;101493.91;4844086;29;45361;-80
2022/10/29 01:24:39;;;;;;;;;13.75;11.25;;;;;19.70;71.24;101503.50;4844081;29;46059;-80
2022/10/29 01:27:13;;;;;;;;;10.25;9.00;;;;;19.63;71.11;101492.16;4843495;29;45373;-80
2022/10/29 01:30:00;;;;;;;;;12.50;12.50;;;;;19.70;71.02;101502.63;4842517;29;46380;-80
2022/10/29 01:32:37;;;;;;;;;9.75;9.75;;;;;19.69;71.05;101507.16;4843064;29;45738;-80
2022/10/29 01:35:13;;;;;;;;;12.00;11.75;;;;;19.67;71.23;101503.66;4841329;29;45630;-80
2022/10/29 01:37:48;;;;;;;;;10.25;9.00;;;;;19.69;70.91;101495.44;4858134;29;45978;-80
2022/10/29 01:40:26;;;;;;;;;13.50;11.75;;;;;19.62;71.28;101484.97;4838841;29;45224;-80
2022/10/29 01:43:03;;;;;;;;;13.25;11.00;;;;;19.69;71.10;101495.44;4844772;29;45741;-80
2022/10/29 01:45:38;;;;;;;;;11.75;9.25;;;;;19.68;71.02;101491.00;4843980;29;45363;-80
2022/10/29 01:48:15;;;;;;;;;11.25;9.50;;;;;19.68;71.25;101481.06;4857604;29;45575;-80
2022/10/29 01:50:46;;;;;;;;;14.00;11.00;;;;;19.67;70.94;101464.88;4839874;29;45413;-80
2022/10/29 01:53:12;;;;;;;;;13.00;13.00;;;;;19.63;71.18;101458.78;4841190;29;45576;-80
2022/10/29 01:55:37;;;;;;;;;15.50;11.25;;;;;19.62;70.87;101452.47;4859593;29;45417;-80
2022/10/29 01:58:05;;;;;;;;;13.50;11.50;;;;;19.61;70.74;101448.03;4852516;29;45375;-80
2022/10/29 02:01:15;;;;;;;;;12.25;11.75;;;;;19.58;70.82;101445.50;4843159;29;45532;-80
2022/10/29 02:03:53;;;;;;;;;16.50;14.25;;;;;19.57;71.02;101445.59;4838614;29;45289;-80
2022/10/29 02:06:38;;;;;;;;;14.00;12.00;;;;;19.56;70.89;101433.91;4846596;29;45272;-80
2022/10/29 02:09:14;;;;;;;;;13.75;11.75;;;;;19.54;70.86;101427.69;4846749;29;45310;-80
2022/10/29 02:11:50;;;;;;;;;13.25;11.25;;;;;19.54;70.97;101424.97;4828984;29;46553;-80
2022/10/29 02:14:21;;;;;;;;;17.25;13.00;;;;;19.48;71.04;101400.09;4845338;29;45590;-80
2022/10/29 02:16:48;;;;;;;;;11.25;10.25;;;;;19.55;71.04;101409.63;4844618;29;45304;-80
2022/10/29 02:19:13;;;;;;;;;13.00;12.25;;;;;19.52;70.42;101397.13;4846130;29;45485;-80
2022/10/29 02:21:39;;;;;;;;;11.75;11.00;;;;;19.50;70.66;101409.88;4840796;29;45688;-80
2022/10/29 02:24:06;;;;;;;;;13.00;11.75;;;;;19.46;70.73;101408.31;4844588;29;45379;-79
2022/10/29 02:26:31;;;;;;;;;16.75;15.75;;;;;19.50;70.49;101412.59;4845370;29;45231;-80
2022/10/29 02:28:57;;;;;;;;;17.25;13.75;;;;;19.49;70.88;101407.28;4834703;29;48494;-80
2022/10/29 02:31:23;;;;;;;;;15.00;12.75;;;;;19.49;70.78;101401.84;4836819;29;47450;-80
2022/10/29 02:33:48;;;;;;;;;12.50;11.25;;;;;19.39;70.39;101383.44;4846861;29;45216;-80
2022/10/29 02:36:14;;;;;;;;;11.75;11.75;;;;;19.50;70.55;101396.34;4846200;29;45915;-80
2022/10/29 02:38:39;;;;;;;;;9.75;9.50;;;;;19.49;70.71;101402.72;4844808;29;46424;-77
2022/10/29 02:41:05;;;;;;;;;5.25;4.00;;;;;19.51;70.50;101394.50;4829204;29;46762;-77
2022/10/29 02:43:30;;;;;;;;;10.50;8.75;;;;;19.46;70.41;101383.94;4843317;29;45429;-77
2022/10/29 02:46:16;;;;;;;;;13.00;11.50;;;;;19.51;70.57;101389.97;4839794;29;45535;-78
2022/10/29 02:48:41;;;;;;;;;12.00;12.00;;;;;19.48;70.45;101394.69;4839909;29;45316;-77
2022/10/29 02:51:07;;;;;;;;;8.00;8.00;;;;;19.48;70.55;101391.97;4843501;29;46053;-77
2022/10/29 02:53:32;;;;;;;;;13.00;11.75;;;;;19.49;70.33;101391.88;4860880;29;45398;-77
2022/10/29 02:55:58;;;;;;;;;14.50;11.25;;;;;19.44;70.35;101380.47;4838525;29;45788;-77
2022/10/29 02:58:23;;;;;;;;;12.75;11.25;;;;;19.46;70.08;101389.34;4852279;29;45392;-77
2022/10/29 03:00:49;;;;;;;;;12.75;11.50;;;;;19.39;70.23;101377.16;4844047;29;50463;-77
2022/10/29 03:03:15;;;;;;;;;12.25;10.25;;;;;19.46;70.17;101381.22;4845617;29;45485;-77
2022/10/29 03:05:40;;;;;;;;;9.25;9.25;;;;;19.46;70.02;101372.25;4846668;29;45761;-77
2022/10/29 03:08:05;;;;;;;;;13.00;11.50;;;;;19.42;70.27;101369.72;4839266;29;46983;-77
2022/10/29 03:10:31;;;;;;;;;13.00;11.50;;;;;19.41;70.13;101369.81;4841221;29;46033;-77
2022/10/29 03:13:00;;;;;;;;;10.00;10.00;;;;;19.41;69.97;101373.41;4840961;29;45258;-77
2022/10/29 03:15:26;;;;;;;;;10.75;10.25;;;;;19.34;69.74;101350.34;4844568;29;45471;-77
2022/10/29 03:17:51;;;;;;;;;12.00;9.75;;;;;19.35;70.15;101354.81;4845196;29;46143;-77
2022/10/29 03:20:17;;;;;;;;;12.75;12.75;;;;;19.35;69.54;101367.50;4842874;29;46346;-77
2022/10/29 03:22:42;;;;;;;;;7.25;6.25;;;;;19.35;70.09;101372.91;4839590;29;45837;-77
2022/10/29 03:25:08;;;;;;;;;10.25;9.25;;;;;19.30;70.04;101369.59;4844934;29;45362;-77
2022/10/29 03:27:42;;;;;;;;;12.50;10.25;;;;;19.24;69.68;101354.56;4843127;29;45470;-77
2022/10/29 03:30:12;;;;;;;;;8.00;8.00;;;;;19.30;69.86;101367.75;4841068;29;45470;-77
2022/10/29 03:32:42;;;;;;;;;14.00;9.50;;;;;19.30;70.06;101378.59;4836130;29;45272;-77
2022/10/29 03:35:09;;;;;;;;;9.50;9.00;;;;;19.23;69.81;101367.25;4839129;29;45339;-77
2022/10/29 03:37:35;;;;;;;;;11.50;11.25;;;;;19.29;70.13;101376.81;4841321;29;45459;-77
2022/10/29 03:40:00;;;;;;;;;12.75;10.25;;;;;19.28;69.91;101380.50;4858833;29;47668;-79
2022/10/29 03:42:25;;;;;;;;;14.50;13.25;;;;;19.27;69.99;101370.63;4843511;29;45515;-80
2022/10/29 03:44:51;;;;;;;;;10.25;9.75;;;;;19.28;70.12;101371.50;4837460;29;45301;-80
2022/10/29 03:47:16;;;;;;;;;12.25;10.00;;;;;19.27;70.30;101354.41;4844586;29;45320;-80
2022/10/29 03:49:41;;;;;;;;;11.00;10.50;;;;;19.27;69.74;101373.34;4832495;29;47479;-80
2022/10/29 03:52:07;;;;;;;;;11.00;11.00;;;;;19.16;69.74;101362.28;4835181;29;45282;-80
2022/10/29 03:54:33;;;;;;;;;11.50;10.00;;;;;19.27;70.11;101375.19;4837543;29;45737;-80
2022/10/29 03:56:58;;;;;;;;;11.75;9.75;;;;;19.17;69.99;101354.06;4845135;29;45410;-80
2022/10/29 03:59:23;;;;;;;;;13.25;10.00;;;;;19.24;70.01;101339.22;4843405;29;55728;-80
2022/10/29 04:01:49;;;;;;;;;12.00;8.25;;;;;19.15;70.02;101326.22;4841738;29;45398;-81
2022/10/29 04:04:14;;;;;;;;;9.25;7.50;;;;;19.19;70.19;101338.59;4841443;29;45500;-81
2022/10/29 04:06:39;;;;;;;;;11.75;9.00;;;;;19.22;70.11;101351.09;4838710;29;45501;-77
2022/10/29 04:09:05;;;;;;;;;7.00;7.00;;;;;19.24;69.99;101363.59;4844062;29;49135;-77
2022/10/29 04:11:30;;;;;;;;;9.75;9.75;;;;;19.23;69.80;101369.94;4839427;29;45415;-77
2022/10/29 04:13:55;;;;;;;;;13.00;10.00;;;;;19.21;69.80;101363.75;4844823;29;45397;-77
2022/10/29 04:16:21;;;;;;;;;11.50;8.00;;;;;19.18;70.07;101374.75;4837871;29;50398;-77
2022/10/29 04:18:47;;;;;;;;;16.75;12.00;;;;;19.22;70.19;101376.31;4831980;29;46251;-77
2022/10/29 04:21:12;;;;;;;;;12.25;11.25;;;;;19.12;69.90;101366.13;4847145;29;45490;-77
2022/10/29 04:23:38;;;;;;;;;8.00;8.00;;;;;19.16;69.92;101375.81;4847222;29;45766;-77
2022/10/29 04:26:03;;;;;;;;;14.25;12.25;;;;;19.17;70.26;101382.97;4844541;29;46312;-77
2022/10/29 04:28:29;;;;;;;;;13.25;11.25;;;;;19.15;70.03;101364.13;4844505;29;46035;-77
2022/10/29 04:30:54;;;;;;;;;14.25;10.75;;;;;19.16;69.79;101363.16;4859131;29;45829;-77
2022/10/29 04:33:20;;;;;;;;;10.75;10.75;;;;;19.19;69.90;101360.25;4843658;29;45689;-77
2022/10/29 04:35:53;;;;;;;;;11.50;11.25;;;;;19.20;69.89;101358.44;4840296;29;45519;-78
2022/10/29 04:38:19;;;;;;;;;10.50;10.00;;;;;19.19;70.01;101360.25;4841879;29;46672;-77
2022/10/29 04:40:44;;;;;;;;;12.00;11.00;;;;;19.16;70.20;101341.50;4843522;29;45433;-77
2022/10/29 04:43:10;;;;;;;;;13.25;10.00;;;;;19.14;69.91;101338.00;4845201;29;46883;-77
2022/10/29 04:45:35;;;;;;;;;12.00;9.75;;;;;19.19;69.79;101344.00;4846775;29;45482;-77
2022/10/29 04:48:01;;;;;;;;;11.50;10.00;;;;;19.13;69.69;101341.69;4845788;29;46419;-77
2022/10/29 04:50:28;;;;;;;;;10.50;10.50;;;;;19.19;69.58;101351.28;4842631;29;45827;-77
2022/10/29 04:52:57;;;;;;;;;14.50;12.00;;;;;19.20;69.65;101350.31;4846954;29;45301;-77
2022/10/29 04:55:23;;;;;;;;;14.50;11.50;;;;;19.08;69.86;101330.28;4840732;29;45403;-77
2022/10/29 04:57:49;;;;;;;;;7.75;7.75;;;;;19.16;69.70;101344.22;4841260;29;47352;-76
2022/10/29 05:00:15;;;;;;;;;14.50;11.00;;;;;19.15;69.46;101336.19;4848289;29;45376;-77
2022/10/29 05:02:40;;;;;;;;;10.25;10.25;;;;;19.15;69.52;101337.06;4846526;29;45625;-77
2022/10/29 05:05:06;;;;;;;;;11.00;11.00;;;;;19.07;69.74;101321.25;4849063;29;45370;-77
2022/10/29 05:07:31;;;;;;;;;10.50;10.50;;;;;19.14;69.64;101329.88;4848230;29;45388;-77
2022/10/29 05:09:56;;;;;;;;;12.50;10.00;;;;;19.12;69.74;101326.41;4848722;29;45340;-77
2022/10/29 05:12:22;;;;;;;;;9.25;9.25;;;;;19.09;69.62;101315.75;4847640;29;45300;-77
2022/10/29 05:14:47;;;;;;;;;11.00;10.00;;;;;19.11;69.56;101329.19;4847225;29;45404;-77
2022/10/29 05:17:12;;;;;;;;;13.25;13.25;;;;;19.15;69.43;101333.47;4847341;29;47011;-77
2022/10/29 05:19:38;;;;;;;;;6.75;6.00;;;;;19.16;69.53;101329.78;4847330;29;45325;-77
2022/10/29 05:22:03;;;;;;;;;10.00;10.00;;;;;19.16;69.73;101325.28;4846327;29;45525;-80
2022/10/29 05:24:28;;;;;;;;;10.00;10.00;;;;;19.15;69.31;101328.94;4848994;29;45431;-81
2022/10/29 05:26:53;;;;;;;;;13.00;11.25;;;;;19.10;69.24;101320.22;4846962;29;45393;-81
2022/10/29 05:29:19;;;;;;;;;11.50;9.25;;;;;19.12;69.49;101326.41;4847217;29;45639;-81
2022/10/29 05:31:44;;;;;;;;;11.75;10.00;;;;;19.14;69.67;101321.75;4846387;29;45442;-81
2022/10/29 05:34:09;;;;;;;;;9.00;8.75;;;;;19.11;69.32;101310.25;4848584;29;45543;-81
2022/10/29 05:36:35;;;;;;;;;9.75;7.75;;;;;19.11;69.70;101307.56;4848691;29;45623;-81
2022/10/29 05:39:00;;;;;;;;;15.25;12.75;;;;;19.11;69.39;101311.16;4846908;29;47071;-81
2022/10/29 05:41:25;;;;;;;;;10.00;8.25;;;;;19.10;69.36;101303.97;4846300;29;45416;-81
2022/10/29 05:43:51;;;;;;;;;11.00;9.50;;;;;19.09;69.70;101294.13;4847283;29;45444;-81
2022/10/29 05:46:16;;;;;;;;;11.50;9.50;;;;;19.06;69.48;101289.78;4846373;29;45913;-80
2022/10/29 05:48:41;;;;;;;;;10.50;10.00;;;;;19.00;69.83;101281.16;4848066;29;45452;-81
2022/10/29 05:51:07;;;;;;;;;11.75;10.75;;;;;19.05;69.73;101295.28;4847395;29;45251;-81
2022/10/29 05:53:32;;;;;;;;;16.00;11.25;;;;;18.98;69.58;101289.34;4846118;29;45318;-81
2022/10/29 05:55:58;;;;;;;;;11.50;8.75;;;;;19.01;69.86;101294.59;4830084;29;45549;-81
2022/10/29 05:58:23;;;;;;;;;13.25;11.50;;;;;19.01;69.61;101289.19;4847706;29;45345;-81
2022/10/29 06:00:49;;;;;;;;;9.50;9.50;;;;;18.99;70.01;101291.06;4836635;29;45526;-81
2022/10/29 06:03:23;;;;;;;;;9.25;9.25;;;;;18.97;69.87;101295.72;4846721;29;45306;-77
2022/10/29 06:05:49;;;;;;;;;12.00;11.75;;;;;18.94;70.11;101281.50;4843692;29;46952;-77
2022/10/29 06:08:16;;;;;;;;;16.50;11.75;;;;;18.96;70.03;101279.56;4858255;29;46205;-77
2022/10/29 06:10:41;;;;;;;;;13.75;12.25;;;;;18.94;70.19;101279.66;4846320;29;45387;-77
2022/10/29 06:13:10;;;;;;;;;7.75;7.75;;;;;18.94;70.10;101286.91;4832023;29;45483;-77
2022/10/29 06:15:36;;;;;;;;;11.50;9.25;;;;;18.94;70.12;101281.50;4845269;29;45512;-81
2022/10/29 06:18:01;;;;;;;;;10.25;9.25;;;;;18.92;69.92;101272.59;4838766;29;45283;-81
2022/10/29 06:20:26;;;;;;;;;13.00;11.75;;;;;18.86;69.87;101249.47;4835598;29;45699;-81
2022/10/29 06:22:56;;;;;;;;;15.75;14.50;;;;;18.91;69.84;101251.91;4845082;29;50108;-81
2022/10/29 06:25:21;;;;;;;;;13.00;11.50;;;;;18.86;70.24;101263.91;4838934;29;46078;-81
2022/10/29 06:27:47;;;;;;;;;12.25;11.75;;;;;18.87;70.18;101267.47;4837192;29;45627;-81
2022/10/29 06:30:12;;;;;;;;;15.25;10.50;;;;;18.81;70.02;101271.38;4844630;29;45812;-81
2022/10/29 06:32:37;;;;;;;;;12.00;12.00;;;;;18.84;70.21;101283.88;4838891;29;45642;-78
2022/10/29 06:35:03;;;;;;;;;16.75;14.50;;;;;18.84;70.11;101292.88;4843917;29;46046;-77
2022/10/29 06:37:32;;;;;;;;;11.75;11.50;;;;;18.82;70.19;101299.28;4836635;29;45783;-77
2022/10/29 06:39:57;;;;;;;;;11.75;11.75;;;;;18.84;70.21;101291.97;4844524;29;45390;-77
2022/10/29 06:42:23;;;;;;;;;18.50;13.00;;;;;18.84;69.99;101292.88;4840638;29;45510;-77
2022/10/29 06:44:48;;;;;;;;;12.50;12.25;;;;;18.84;70.16;101282.06;4838465;29;52978;-77
2022/10/29 06:47:13;;;;;;;;;13.25;13.25;;;;;18.80;70.31;101291.25;4846930;29;45302;-77
2022/10/29 06:49:39;;;;;;;;;11.50;9.50;;;;;18.73;70.89;101300.69;4832034;29;45889;-77
2022/10/29 06:52:04;;;;;;;;;15.75;12.75;;;;;18.83;70.15;101325.41;4843246;29;45528;-77
2022/10/29 06:54:29;;;;;;;;;14.75;12.00;;;;;18.80;70.28;101312.91;4850110;29;45451;-77
2022/10/29 06:56:55;;;;;;;;;14.50;13.75;;;;;18.78;70.57;101317.53;4832190;29;57668;-77
2022/10/29 06:59:22;;;;;;;;;16.25;14.50;;;;;18.74;70.47;101304.28;4844757;29;45528;-77
2022/10/29 07:01:47;;;;;;;;;12.50;12.25;;;;;18.77;70.18;101312.22;4851682;29;45544;-77
2022/10/29 07:04:13;;;;;;;;;12.25;12.25;;;;;18.77;70.68;101307.66;4845863;29;46301;-77
2022/10/29 07:06:38;;;;;;;;;16.25;12.00;;;;;18.72;70.67;101298.94;4845608;29;45253;-77
2022/10/29 07:09:03;;;;;;;;;14.25;14.25;;;;;18.75;70.64;101290.66;4845368;29;45496;-77
2022/10/29 07:11:29;;;;;;;;;20.25;18.50;;;;;18.70;70.38;101279.25;4837131;29;46864;-77
2022/10/29 07:13:55;;;;;;;;;16.00;14.25;;;;;18.73;70.61;101297.09;4833030;29;45404;-77
2022/10/29 07:16:20;;;;;;;;;16.50;14.00;;;;;18.71;70.13;101302.63;4840923;29;45340;-77
2022/10/29 07:18:45;;;;;;;;;8.75;8.25;;;;;18.67;69.78;101280.28;4845961;29;45489;-77
2022/10/29 07:21:12;;;;;;;;;11.25;11.25;;;;;18.71;69.64;101286.41;4846280;29;45545;-77
2022/10/29 07:23:38;;;;;;;;;14.00;10.75;;;;;18.72;69.83;101290.84;4846101;29;45499;-77
2022/10/29 07:26:03;;;;;;;;;11.00;10.25;;;;;18.64;69.89;101271.47;4838816;29;45514;-77
2022/10/29 07:28:28;;;;;;;;;12.50;12.25;;;;;18.64;69.73;101274.19;4839612;29;45329;-77
2022/10/29 07:30:58;;;;;;;;;9.75;9.75;;;;;18.68;69.27;101276.63;4829605;29;45440;-77
2022/10/29 07:33:24;;;;;;;;;11.75;11.00;;;;;18.72;69.67;101280.00;4832088;29;47166;-77
2022/10/29 07:35:49;;;;;;;;;8.50;8.25;;;;;18.70;69.58;101273.84;4837830;29;45358;-77
2022/10/29 07:38:14;;;;;;;;;12.50;10.25;;;;;18.73;69.46;101283.59;4833661;29;45420;-77
2022/10/29 07:40:46;;;;;;;;;11.25;10.75;;;;;18.72;69.24;101276.44;4842272;29;45562;-77
2022/10/29 07:43:12;;;;;;;;;13.25;13.25;;;;;18.67;69.60;101261.34;4846040;29;46044;-77
2022/10/29 07:45:37;;;;;;;;;12.50;11.00;;;;;18.73;69.62;101270.97;4836949;29;45383;-77
2022/10/29 07:48:06;;;;;;;;;14.50;11.75;;;;;18.76;69.85;101276.19;4858354;29;45480;-77
2022/10/29 07:50:32;;;;;;;;;12.50;12.00;;;;;18.78;69.55;101278.81;4845531;29;45510;-77
2022/10/29 07:52:59;;;;;;;;;10.75;8.50;;;;;18.70;69.17;101253.06;4842163;29;45592;-77
2022/10/29 07:55:24;;;;;;;;;11.25;10.75;;;;;18.74;69.33;101258.28;4835593;29;45841;-77
2022/10/29 07:58:04;;;;;;;;;15.25;12.00;;;;;18.81;69.13;101271.38;4845813;29;45400;-77
2022/10/29 08:00:32;;;;;;;;;12.50;12.00;;;;;18.78;69.53;101279.66;4834121;29;45400;-77
2022/10/29 08:02:58;;;;;;;;;14.50;12.00;;;;;18.79;69.42;101289.50;4845083;29;46389;-77
2022/10/29 08:05:25;;;;;;;;;16.25;14.00;;;;;18.75;68.96;101285.25;4852354;29;47846;-77
2022/10/29 08:07:54;;;;;;;;;14.00;12.00;;;;;18.81;69.28;101301.13;4834467;29;45320;-77
2022/10/29 08:10:21;;;;;;;;;17.50;14.50;;;;;18.83;69.38;101312.75;4836239;29;45330;-77
2022/10/29 08:12:54;;;;;;;;;13.25;13.25;;;;;18.84;69.11;101298.28;4848195;29;46349;-77
2022/10/29 08:15:20;;;;;;;;;10.25;9.00;;;;;18.86;69.03;101314.41;4847911;29;45529;-77
2022/10/29 08:17:46;;;;;;;;;12.25;11.75;;;;;18.87;68.85;101311.59;4845279;29;45401;-77
2022/10/29 08:20:12;;;;;;;;;13.00;13.00;;;;;18.85;69.40;101300.00;4842214;29;45560;-79
2022/10/29 08:22:38;;;;;;;;;15.75;13.00;;;;;18.86;69.00;101292.75;4833506;29;45447;-80
2022/10/29 08:25:04;;;;;;;;;11.75;9.25;;;;;18.85;68.75;101299.16;4841030;29;45689;-80
2022/10/29 08:27:29;;;;;;;;;12.25;12.25;;;;;18.90;68.98;101302.44;4833568;29;45404;-80
2022/10/29 08:29:54;;;;;;;;;13.25;12.00;;;;;18.88;68.81;101305.25;4839152;29;45510;-81
2022/10/29 08:32:19;;;;;;;;;14.00;11.00;;;;;18.93;69.19;101304.97;4840716;29;45311;-80
2022/10/29 08:34:45;;;;;;;;;14.25;12.50;;;;;18.95;68.81;101305.75;4840653;29;45719;-79
2022/10/29 08:37:10;;;;;;;;;12.75;12.75;;;;;18.94;68.71;101292.31;4845064;29;45411;-79
2022/10/29 08:39:35;;;;;;;;;11.50;10.50;;;;;18.93;68.92;101290.56;4842360;29;45506;-79
2022/10/29 08:42:16;;;;;;;;;9.00;8.50;;;;;19.00;68.88;101308.19;4833719;29;45439;-79
2022/10/29 08:45:26;;;;;;;;;11.25;11.25;;;;;19.01;68.30;101301.81;4831668;29;45525;-80
2022/10/29 08:48:00;;;;;;;;;11.75;10.00;;;;;19.05;68.00;101292.56;4840700;29;45330;-80
2022/10/29 08:50:40;;;;;;;;;11.50;7.00;;;;;19.07;68.16;101298.75;4840845;29;45332;-80
2022/10/29 08:53:28;;;;;;;;;12.00;11.50;;;;;19.08;67.87;101281.56;4837390;29;46222;-80
2022/10/29 08:55:54;;;;;;;;;11.00;11.00;;;;;19.07;68.01;101279.81;4845621;29;45461;-80
2022/10/29 08:58:36;;;;;;;;;11.25;10.75;;;;;19.05;68.42;101263.66;4838692;29;49258;-80
2022/10/29 09:01:01;;;;;;;;;9.25;6.75;;;;;19.23;68.70;101290.59;4844897;29;45523;-81
2022/10/29 09:03:30;;;;;;;;;11.00;9.25;;;;;19.25;69.17;101294.94;4844993;29;46725;-81
2022/10/29 09:06:20;;;;;;;;;10.25;9.25;;;;;19.29;67.90;101301.03;4849963;29;45531;-80
2022/10/29 09:09:02;;;;;;;;;11.25;11.00;;;;;19.33;67.79;101310.72;4829156;29;45442;-81
2022/10/29 09:12:02;;;;;;;;;12.50;8.50;;;;;19.40;67.45;101316.66;4835876;29;45704;-80
2022/10/29 09:14:44;;;;;;;;;11.00;10.00;;;;;19.39;67.26;101309.47;4826162;29;45813;-80
2022/10/29 09:17:25;;;;;;;;;11.00;8.25;;;;;19.47;66.85;101312.59;4832205;29;45657;-80
2022/10/29 09:19:59;;;;;;;;;8.75;6.75;;;;;19.52;67.15;101312.31;4827472;29;45563;-80
2022/10/29 09:23:09;;;;;;;;;9.75;7.50;;;;;19.54;66.89;101316.66;4840018;29;45700;-80
2022/10/29 09:25:37;;;;;;;;;10.00;10.00;;;;;19.57;66.97;101305.66;4835689;29;45538;-77
2022/10/29 09:28:40;;;;;;;;;11.00;10.25;;;;;19.60;66.67;101305.47;4844167;29;45530;-77
2022/10/29 09:31:16;;;;;;;;;12.00;8.25;;;;;19.56;66.72;101289.50;4844880;29;45487;-77
2022/10/29 09:33:49;;;;;;;;;11.00;9.25;;;;;19.67;66.45;101302.38;4852445;29;45464;-77
2022/10/29 09:36:17;;;;;;;;;13.50;10.00;;;;;19.68;66.65;101302.28;4844869;29;46007;-76
2022/10/29 09:39:15;;;;;;;;;8.00;6.00;;;;;19.71;66.09;101306.63;4831266;29;45703;-76
2022/10/29 09:41:43;;;;;;;;;11.75;11.25;;;;;19.73;66.13;101304.69;4835470;29;45484;-77
2022/10/29 09:44:17;;;;;;;;;11.75;10.25;;;;;19.76;65.69;101294.59;4842927;29;45335;-77
2022/10/29 09:47:24;;;;;;;;;12.75;9.75;;;;;19.80;65.42;101303.41;4840230;29;47631;-76
2022/10/29 09:50:10;;;;;;;;;13.25;8.75;;;;;19.81;65.74;101302.41;4824819;29;45413;-77
2022/10/29 09:52:39;;;;;;;;;10.00;8.25;;;;;19.82;65.39;101293.34;4837937;29;45913;-77
2022/10/29 09:55:09;;;;;;;;;10.75;8.25;;;;;19.82;65.26;101279.78;4842036;29;45781;-77
2022/10/29 09:57:36;;;;;;;;;9.00;9.00;;;;;19.96;64.48;101287.03;4847230;29;46178;-77
2022/10/29 10:00:15;;;;;;;;;12.75;12.00;;;;;20.01;65.36;101290.31;4844401;29;45520;-77
2022/10/29 10:02:50;;;;;;;;;14.75;10.50;;;;;20.04;65.16;101291.97;4842901;29;45440;-77
2022/10/29 10:05:22;;;;;;;;;11.25;11.00;;;;;20.01;65.00;101282.19;4848884;29;45473;-77
2022/10/29 10:08:11;;;;;;;;;13.00;10.50;;;;;20.14;64.81;101301.25;4842974;29;48087;-77
2022/10/29 10:10:54;;;;;;;;;13.00;9.25;;;;;20.13;65.02;101284.16;4846285;29;45446;-83
2022/10/29 10:13:24;;;;;;;;;11.50;10.25;;;;;20.13;64.42;101280.53;4858039;29;45490;-82
2022/10/29 10:16:00;;;;;;;;;11.50;10.50;;;;;20.16;64.55;101277.63;4829564;29;45785;-81
2022/10/29 10:18:32;;;;;;;;;16.00;14.50;;;;;20.25;64.18;101293.31;4840673;29;48536;-82
2022/10/29 10:21:24;;;;;;;;;9.75;8.75;;;;;20.28;64.19;101297.66;4831487;29;45236;-82
2022/10/29 10:23:54;;;;;;;;;11.50;10.75;;;;;20.26;64.07;101289.63;4841482;29;45374;-82
2022/10/29 10:26:27;;;;;;;;;11.50;10.00;;;;;20.33;63.97;101293.69;4847211;29;45476;-77
2022/10/29 10:29:12;;;;;;;;;14.50;9.75;;;;;20.37;64.34;101291.66;4844169;29;48706;-77
2022/10/29 10:31:46;;;;;;;;;10.00;9.75;;;;;20.37;63.66;101280.81;4841321;29;45486;-77
2022/10/29 10:34:16;;;;;;;;;9.00;8.00;;;;;20.47;63.41;101289.22;4857502;29;45389;-77
2022/10/29 10:36:53;;;;;;;;;4.75;4.00;;;;;20.46;63.86;101279.34;4849525;29;45675;-82
2022/10/29 10:39:26;;;;;;;;;7.75;7.25;;;;;20.52;63.47;101285.22;4846732;29;45595;-82
2022/10/29 10:41:54;;;;;;;;;8.00;7.00;;;;;20.49;63.58;101271.88;4845324;29;45418;-81
2022/10/29 10:44:21;;;;;;;;;11.75;9.50;;;;;20.58;63.37;101273.13;4843514;29;45328;-81
2022/10/29 10:46:50;;;;;;;;;10.00;9.00;;;;;20.58;63.98;101269.50;4843199;29;45491;-81
2022/10/29 10:49:29;;;;;;;;;12.00;9.00;;;;;20.57;63.43;101256.94;4846181;29;46369;-81
2022/10/29 10:51:55;;;;;;;;;8.75;8.00;;;;;20.69;63.35;101267.00;4852260;29;45907;-81
2022/10/29 10:54:35;;;;;;;;;10.00;10.00;;;;;20.70;62.92;101257.91;4840672;29;45433;-81
2022/10/29 10:57:09;;;;;;;;;11.25;9.00;;;;;20.76;62.63;101251.19;4845452;29;45766;-81
2022/10/29 10:59:57;;;;;;;;;9.00;8.75;;;;;20.79;63.17;101249.13;4847809;29;45780;-81
2022/10/29 11:02:30;;;;;;;;;9.75;8.75;;;;;20.83;63.25;101245.25;4845505;29;45465;-81
2022/10/29 11:05:14;;;;;;;;;13.00;10.75;;;;;20.83;62.71;101230.78;4848486;29;45516;-81
2022/10/29 11:07:53;;;;;;;;;13.75;10.75;;;;;20.80;62.54;101221.03;4845394;29;45580;-81
2022/10/29 11:10:24;;;;;;;;;12.00;10.00;;;;;20.86;62.88;101227.88;4840865;29;47367;-81
2022/10/29 11:12:54;;;;;;;;;11.00;9.00;;;;;20.88;62.99;101229.53;4843071;29;45461;-81
2022/10/29 11:15:31;;;;;;;;;10.50;8.25;;;;;20.95;62.54;101232.69;4837542;29;45481;-80
2022/10/29 11:18:05;;;;;;;;;9.50;9.50;;;;;20.98;62.88;101240.63;4850008;29;45698;-81
2022/10/29 11:20:35;;;;;;;;;9.00;8.50;;;;;20.95;62.00;101229.97;4824868;29;45451;-80
2022/10/29 11:23:22;;;;;;;;;14.00;9.00;;;;;21.04;62.63;101242.03;4843039;29;45695;-79
2022/10/29 11:26:14;;;;;;;;;12.25;9.50;;;;;21.07;63.18;101242.69;4840228;29;46148;-77